<?xml version="1.0" encoding="UTF-8" standalone="no" ?>
<gpx xmlns="http://www.topografix.com/GPX/1/1" xmlns:xsi="http://www.w3.org/2001/XMLSchema-instance" xsi:schemaLocation="http://www.topografix.com/GPX/1/1 http://www.topografix.com/GPX/1/1/gpx.xsd" version="1.1" creator="VisuGPX - https://www.visugpx.com">
  <metadata>
    <name>Sainté Trail Urbain 11km</name>
    <desc><![CDATA[Le plus petit parcours ouvert à tous.
Dimanche 20 novembre départ 9h15 Zenith]]></desc>
  </metadata>
  <trk>
    <name><![CDATA[OR-6623130--Saint-Étienne:STU102609]]></name>
    <trkseg>
      <trkpt lat="45.45348" lon="4.39298">
        <ele>493</ele>
        <time>2016-11-14T11:01:26Z</time>
      </trkpt>
      <trkpt lat="45.45279" lon="4.39187">
        <ele>493</ele>
        <time>2016-11-14T11:03:26Z</time>
      </trkpt>
      <trkpt lat="45.45276" lon="4.39059">
        <ele>497</ele>
        <time>2016-11-14T11:05:26Z</time>
      </trkpt>
      <trkpt lat="45.45353" lon="4.39064">
        <ele>496</ele>
        <time>2016-11-14T11:07:26Z</time>
      </trkpt>
      <trkpt lat="45.45357" lon="4.38949">
        <ele>498</ele>
        <time>2016-11-14T11:09:26Z</time>
      </trkpt>
      <trkpt lat="45.45364" lon="4.38823">
        <ele>501</ele>
        <time>2016-11-14T11:11:26Z</time>
      </trkpt>
      <trkpt lat="45.45349" lon="4.38788">
        <ele>501</ele>
        <time>2016-11-14T11:13:26Z</time>
      </trkpt>
      <trkpt lat="45.45139" lon="4.38835">
        <ele>501</ele>
        <time>2016-11-14T11:15:26Z</time>
      </trkpt>
      <trkpt lat="45.44977" lon="4.38874">
        <ele>502</ele>
        <time>2016-11-14T11:17:26Z</time>
      </trkpt>
      <trkpt lat="45.44964" lon="4.38781">
        <ele>504</ele>
        <time>2016-11-14T11:19:26Z</time>
      </trkpt>
      <trkpt lat="45.44857" lon="4.38818">
        <ele>504</ele>
        <time>2016-11-14T11:21:26Z</time>
      </trkpt>
      <trkpt lat="45.448" lon="4.38833">
        <ele>504</ele>
        <time>2016-11-14T11:23:26Z</time>
      </trkpt>
      <trkpt lat="45.4479" lon="4.38836">
        <ele>504</ele>
        <time>2016-11-14T11:25:26Z</time>
      </trkpt>
      <trkpt lat="45.44717" lon="4.38777">
        <ele>508</ele>
        <time>2016-11-14T11:27:26Z</time>
      </trkpt>
      <trkpt lat="45.44702" lon="4.38773">
        <ele>509</ele>
        <time>2016-11-14T11:29:26Z</time>
      </trkpt>
      <trkpt lat="45.44681" lon="4.38711">
        <ele>511</ele>
        <time>2016-11-14T11:31:26Z</time>
      </trkpt>
      <trkpt lat="45.4466" lon="4.38688">
        <ele>513</ele>
        <time>2016-11-14T11:33:26Z</time>
      </trkpt>
      <trkpt lat="45.44654" lon="4.38677">
        <ele>513</ele>
        <time>2016-11-14T11:35:26Z</time>
      </trkpt>
      <trkpt lat="45.44638" lon="4.38682">
        <ele>514</ele>
        <time>2016-11-14T11:37:26Z</time>
      </trkpt>
      <trkpt lat="45.4462" lon="4.38662">
        <ele>513</ele>
        <time>2016-11-14T11:39:26Z</time>
      </trkpt>
      <trkpt lat="45.44546" lon="4.38682">
        <ele>516</ele>
        <time>2016-11-14T11:41:26Z</time>
      </trkpt>
      <trkpt lat="45.44473" lon="4.38704">
        <ele>518</ele>
        <time>2016-11-14T11:43:26Z</time>
      </trkpt>
      <trkpt lat="45.44397" lon="4.38724">
        <ele>519</ele>
        <time>2016-11-14T11:45:26Z</time>
      </trkpt>
      <trkpt lat="45.44343" lon="4.38741">
        <ele>518</ele>
        <time>2016-11-14T11:47:26Z</time>
      </trkpt>
      <trkpt lat="45.44213" lon="4.38775">
        <ele>519</ele>
        <time>2016-11-14T11:49:26Z</time>
      </trkpt>
      <trkpt lat="45.44203" lon="4.38716">
        <ele>518</ele>
        <time>2016-11-14T11:51:26Z</time>
      </trkpt>
      <trkpt lat="45.4417" lon="4.38717">
        <ele>517</ele>
        <time>2016-11-14T11:53:26Z</time>
      </trkpt>
      <trkpt lat="45.44134" lon="4.38725">
        <ele>518</ele>
        <time>2016-11-14T11:55:26Z</time>
      </trkpt>
      <trkpt lat="45.4408" lon="4.38739">
        <ele>521</ele>
        <time>2016-11-14T11:57:26Z</time>
      </trkpt>
      <trkpt lat="45.44003" lon="4.38766">
        <ele>527</ele>
        <time>2016-11-14T11:59:26Z</time>
      </trkpt>
      <trkpt lat="45.43967" lon="4.38775">
        <ele>526</ele>
        <time>2016-11-14T12:01:26Z</time>
      </trkpt>
      <trkpt lat="45.43857" lon="4.38807">
        <ele>525</ele>
        <time>2016-11-14T12:03:26Z</time>
      </trkpt>
      <trkpt lat="45.43848" lon="4.38817">
        <ele>525</ele>
        <time>2016-11-14T12:05:26Z</time>
      </trkpt>
      <trkpt lat="45.43797" lon="4.38881">
        <ele>527</ele>
        <time>2016-11-14T12:07:26Z</time>
      </trkpt>
      <trkpt lat="45.43796" lon="4.38888">
        <ele>527</ele>
        <time>2016-11-14T12:09:26Z</time>
      </trkpt>
      <trkpt lat="45.43804" lon="4.38944">
        <ele>528</ele>
        <time>2016-11-14T12:11:26Z</time>
      </trkpt>
      <trkpt lat="45.43745" lon="4.39032">
        <ele>528</ele>
        <time>2016-11-14T12:13:26Z</time>
      </trkpt>
      <trkpt lat="45.43713" lon="4.39082">
        <ele>530</ele>
        <time>2016-11-14T12:15:26Z</time>
      </trkpt>
      <trkpt lat="45.43692" lon="4.391">
        <ele>529</ele>
        <time>2016-11-14T12:17:26Z</time>
      </trkpt>
      <trkpt lat="45.43663" lon="4.39114">
        <ele>529</ele>
        <time>2016-11-14T12:19:26Z</time>
      </trkpt>
      <trkpt lat="45.43642" lon="4.39122">
        <ele>529</ele>
        <time>2016-11-14T12:21:26Z</time>
      </trkpt>
      <trkpt lat="45.43587" lon="4.39143">
        <ele>529</ele>
        <time>2016-11-14T12:23:26Z</time>
      </trkpt>
      <trkpt lat="45.43565" lon="4.39032">
        <ele>528</ele>
        <time>2016-11-14T12:25:26Z</time>
      </trkpt>
      <trkpt lat="45.43511" lon="4.39053">
        <ele>529</ele>
        <time>2016-11-14T12:27:26Z</time>
      </trkpt>
      <trkpt lat="45.43484" lon="4.3907">
        <ele>530</ele>
        <time>2016-11-14T12:29:26Z</time>
      </trkpt>
      <trkpt lat="45.43479" lon="4.38965">
        <ele>529</ele>
        <time>2016-11-14T12:31:26Z</time>
      </trkpt>
      <trkpt lat="45.43473" lon="4.38847">
        <ele>531</ele>
        <time>2016-11-14T12:33:26Z</time>
      </trkpt>
      <trkpt lat="45.4347" lon="4.38775">
        <ele>531</ele>
        <time>2016-11-14T12:35:26Z</time>
      </trkpt>
      <trkpt lat="45.43468" lon="4.38754">
        <ele>531</ele>
        <time>2016-11-14T12:37:26Z</time>
      </trkpt>
      <trkpt lat="45.43463" lon="4.38701">
        <ele>539</ele>
        <time>2016-11-14T12:39:26Z</time>
      </trkpt>
      <trkpt lat="45.43427" lon="4.38718">
        <ele>541</ele>
        <time>2016-11-14T12:41:26Z</time>
      </trkpt>
      <trkpt lat="45.4342" lon="4.3871">
        <ele>544</ele>
        <time>2016-11-14T12:43:26Z</time>
      </trkpt>
      <trkpt lat="45.43473" lon="4.38673">
        <ele>542</ele>
        <time>2016-11-14T12:45:26Z</time>
      </trkpt>
      <trkpt lat="45.4347" lon="4.38656">
        <ele>545</ele>
        <time>2016-11-14T12:47:26Z</time>
      </trkpt>
      <trkpt lat="45.435" lon="4.38632">
        <ele>543</ele>
        <time>2016-11-14T12:49:26Z</time>
      </trkpt>
      <trkpt lat="45.43505" lon="4.38612">
        <ele>546</ele>
        <time>2016-11-14T12:51:26Z</time>
      </trkpt>
      <trkpt lat="45.43502" lon="4.38599">
        <ele>549</ele>
        <time>2016-11-14T12:53:26Z</time>
      </trkpt>
      <trkpt lat="45.43489" lon="4.38589">
        <ele>553</ele>
        <time>2016-11-14T12:55:26Z</time>
      </trkpt>
      <trkpt lat="45.43505" lon="4.38566">
        <ele>551</ele>
        <time>2016-11-14T12:57:26Z</time>
      </trkpt>
      <trkpt lat="45.43522" lon="4.3851">
        <ele>549</ele>
        <time>2016-11-14T12:59:26Z</time>
      </trkpt>
      <trkpt lat="45.43524" lon="4.38475">
        <ele>548</ele>
        <time>2016-11-14T13:01:26Z</time>
      </trkpt>
      <trkpt lat="45.43521" lon="4.38444">
        <ele>548</ele>
        <time>2016-11-14T13:03:26Z</time>
      </trkpt>
      <trkpt lat="45.43515" lon="4.38412">
        <ele>548</ele>
        <time>2016-11-14T13:05:26Z</time>
      </trkpt>
      <trkpt lat="45.43508" lon="4.38389">
        <ele>548</ele>
        <time>2016-11-14T13:07:26Z</time>
      </trkpt>
      <trkpt lat="45.43485" lon="4.38261">
        <ele>542</ele>
        <time>2016-11-14T13:09:26Z</time>
      </trkpt>
      <trkpt lat="45.43506" lon="4.38183">
        <ele>543</ele>
        <time>2016-11-14T13:11:26Z</time>
      </trkpt>
      <trkpt lat="45.43534" lon="4.38085">
        <ele>544</ele>
        <time>2016-11-14T13:13:26Z</time>
      </trkpt>
      <trkpt lat="45.43528" lon="4.38045">
        <ele>543</ele>
        <time>2016-11-14T13:15:26Z</time>
      </trkpt>
      <trkpt lat="45.43545" lon="4.37996">
        <ele>541</ele>
        <time>2016-11-14T13:17:26Z</time>
      </trkpt>
      <trkpt lat="45.43584" lon="4.37995">
        <ele>540</ele>
        <time>2016-11-14T13:19:26Z</time>
      </trkpt>
      <trkpt lat="45.43613" lon="4.38024">
        <ele>538</ele>
        <time>2016-11-14T13:21:26Z</time>
      </trkpt>
      <trkpt lat="45.43649" lon="4.38038">
        <ele>536</ele>
        <time>2016-11-14T13:23:26Z</time>
      </trkpt>
      <trkpt lat="45.43726" lon="4.37988">
        <ele>532</ele>
        <time>2016-11-14T13:25:26Z</time>
      </trkpt>
      <trkpt lat="45.43744" lon="4.38003">
        <ele>531</ele>
        <time>2016-11-14T13:27:26Z</time>
      </trkpt>
      <trkpt lat="45.43769" lon="4.38139">
        <ele>533</ele>
        <time>2016-11-14T13:29:26Z</time>
      </trkpt>
      <trkpt lat="45.43856" lon="4.38023">
        <ele>531</ele>
        <time>2016-11-14T13:31:26Z</time>
      </trkpt>
      <trkpt lat="45.43846" lon="4.37924">
        <ele>530</ele>
        <time>2016-11-14T13:33:26Z</time>
      </trkpt>
      <trkpt lat="45.43848" lon="4.37873">
        <ele>529</ele>
        <time>2016-11-14T13:35:26Z</time>
      </trkpt>
      <trkpt lat="45.43854" lon="4.37841">
        <ele>528</ele>
        <time>2016-11-14T13:37:26Z</time>
      </trkpt>
      <trkpt lat="45.43892" lon="4.37772">
        <ele>529</ele>
        <time>2016-11-14T13:39:26Z</time>
      </trkpt>
      <trkpt lat="45.43878" lon="4.37671">
        <ele>533</ele>
        <time>2016-11-14T13:41:26Z</time>
      </trkpt>
      <trkpt lat="45.43867" lon="4.37696">
        <ele>532</ele>
        <time>2016-11-14T13:43:26Z</time>
      </trkpt>
      <trkpt lat="45.43875" lon="4.37777">
        <ele>529</ele>
        <time>2016-11-14T13:45:26Z</time>
      </trkpt>
      <trkpt lat="45.43957" lon="4.3783">
        <ele>528</ele>
        <time>2016-11-14T13:47:26Z</time>
      </trkpt>
      <trkpt lat="45.43965" lon="4.3783">
        <ele>528</ele>
        <time>2016-11-14T13:49:26Z</time>
      </trkpt>
      <trkpt lat="45.4404" lon="4.37709">
        <ele>533</ele>
        <time>2016-11-14T13:51:26Z</time>
      </trkpt>
      <trkpt lat="45.44107" lon="4.37592">
        <ele>542</ele>
        <time>2016-11-14T13:53:26Z</time>
      </trkpt>
      <trkpt lat="45.44209" lon="4.37631">
        <ele>532</ele>
        <time>2016-11-14T13:55:26Z</time>
      </trkpt>
      <trkpt lat="45.44311" lon="4.37666">
        <ele>527</ele>
        <time>2016-11-14T13:57:26Z</time>
      </trkpt>
      <trkpt lat="45.44318" lon="4.37665">
        <ele>526</ele>
        <time>2016-11-14T13:59:26Z</time>
      </trkpt>
      <trkpt lat="45.44343" lon="4.37615">
        <ele>527</ele>
        <time>2016-11-14T14:01:26Z</time>
      </trkpt>
      <trkpt lat="45.44387" lon="4.37539">
        <ele>530</ele>
        <time>2016-11-14T14:03:26Z</time>
      </trkpt>
      <trkpt lat="45.44402" lon="4.37491">
        <ele>532</ele>
        <time>2016-11-14T14:05:26Z</time>
      </trkpt>
      <trkpt lat="45.44405" lon="4.37446">
        <ele>534</ele>
        <time>2016-11-14T14:07:26Z</time>
      </trkpt>
      <trkpt lat="45.44434" lon="4.37411">
        <ele>536</ele>
        <time>2016-11-14T14:09:26Z</time>
      </trkpt>
      <trkpt lat="45.4446" lon="4.37367">
        <ele>538</ele>
        <time>2016-11-14T14:11:26Z</time>
      </trkpt>
      <trkpt lat="45.44484" lon="4.37303">
        <ele>537</ele>
        <time>2016-11-14T14:13:26Z</time>
      </trkpt>
      <trkpt lat="45.44552" lon="4.37328">
        <ele>544</ele>
        <time>2016-11-14T14:15:26Z</time>
      </trkpt>
      <trkpt lat="45.44611" lon="4.3725">
        <ele>550</ele>
        <time>2016-11-14T14:17:26Z</time>
      </trkpt>
      <trkpt lat="45.44634" lon="4.37195">
        <ele>554</ele>
        <time>2016-11-14T14:19:26Z</time>
      </trkpt>
      <trkpt lat="45.44679" lon="4.37038">
        <ele>559</ele>
        <time>2016-11-14T14:21:26Z</time>
      </trkpt>
      <trkpt lat="45.44686" lon="4.37043">
        <ele>560</ele>
        <time>2016-11-14T14:23:26Z</time>
      </trkpt>
      <trkpt lat="45.44683" lon="4.3713">
        <ele>563</ele>
        <time>2016-11-14T14:25:26Z</time>
      </trkpt>
      <trkpt lat="45.4468" lon="4.37173">
        <ele>563</ele>
        <time>2016-11-14T14:27:26Z</time>
      </trkpt>
      <trkpt lat="45.44731" lon="4.37205">
        <ele>574</ele>
        <time>2016-11-14T14:29:26Z</time>
      </trkpt>
      <trkpt lat="45.44772" lon="4.37221">
        <ele>585</ele>
        <time>2016-11-14T14:31:26Z</time>
      </trkpt>
      <trkpt lat="45.44824" lon="4.3719">
        <ele>599</ele>
        <time>2016-11-14T14:33:26Z</time>
      </trkpt>
      <trkpt lat="45.44912" lon="4.37224">
        <ele>629</ele>
        <time>2016-11-14T14:35:26Z</time>
      </trkpt>
      <trkpt lat="45.44953" lon="4.37119">
        <ele>629</ele>
        <time>2016-11-14T14:37:26Z</time>
      </trkpt>
      <trkpt lat="45.44962" lon="4.37185">
        <ele>634</ele>
        <time>2016-11-14T14:39:26Z</time>
      </trkpt>
      <trkpt lat="45.45072" lon="4.37203">
        <ele>638</ele>
        <time>2016-11-14T14:41:26Z</time>
      </trkpt>
      <trkpt lat="45.45097" lon="4.37208">
        <ele>637</ele>
        <time>2016-11-14T14:43:26Z</time>
      </trkpt>
      <trkpt lat="45.45124" lon="4.37222">
        <ele>635</ele>
        <time>2016-11-14T14:45:26Z</time>
      </trkpt>
      <trkpt lat="45.45135" lon="4.37279">
        <ele>634</ele>
        <time>2016-11-14T14:47:26Z</time>
      </trkpt>
      <trkpt lat="45.45159" lon="4.37313">
        <ele>632</ele>
        <time>2016-11-14T14:49:26Z</time>
      </trkpt>
      <trkpt lat="45.45209" lon="4.3729">
        <ele>628</ele>
        <time>2016-11-14T14:51:26Z</time>
      </trkpt>
      <trkpt lat="45.45276" lon="4.37281">
        <ele>619</ele>
        <time>2016-11-14T14:53:26Z</time>
      </trkpt>
      <trkpt lat="45.45315" lon="4.37292">
        <ele>614</ele>
        <time>2016-11-14T14:55:26Z</time>
      </trkpt>
      <trkpt lat="45.4541" lon="4.37288">
        <ele>598</ele>
        <time>2016-11-14T14:57:26Z</time>
      </trkpt>
      <trkpt lat="45.45465" lon="4.37264">
        <ele>589</ele>
        <time>2016-11-14T14:59:26Z</time>
      </trkpt>
      <trkpt lat="45.45501" lon="4.37279">
        <ele>581</ele>
        <time>2016-11-14T15:01:26Z</time>
      </trkpt>
      <trkpt lat="45.45498" lon="4.37451">
        <ele>567</ele>
        <time>2016-11-14T15:03:26Z</time>
      </trkpt>
      <trkpt lat="45.45633" lon="4.37528">
        <ele>546</ele>
        <time>2016-11-14T15:05:26Z</time>
      </trkpt>
      <trkpt lat="45.45804" lon="4.37537">
        <ele>550</ele>
        <time>2016-11-14T15:07:26Z</time>
      </trkpt>
      <trkpt lat="45.45803" lon="4.37455">
        <ele>542</ele>
        <time>2016-11-14T15:09:26Z</time>
      </trkpt>
      <trkpt lat="45.4587" lon="4.37447">
        <ele>543</ele>
        <time>2016-11-14T15:11:26Z</time>
      </trkpt>
      <trkpt lat="45.45934" lon="4.37485">
        <ele>550</ele>
        <time>2016-11-14T15:13:26Z</time>
      </trkpt>
      <trkpt lat="45.45951" lon="4.3752">
        <ele>551</ele>
        <time>2016-11-14T15:15:26Z</time>
      </trkpt>
      <trkpt lat="45.45961" lon="4.37536">
        <ele>551</ele>
        <time>2016-11-14T15:17:26Z</time>
      </trkpt>
      <trkpt lat="45.45995" lon="4.376">
        <ele>548</ele>
        <time>2016-11-14T15:19:26Z</time>
      </trkpt>
      <trkpt lat="45.45992" lon="4.37601">
        <ele>548</ele>
        <time>2016-11-14T15:21:26Z</time>
      </trkpt>
      <trkpt lat="45.46051" lon="4.37605">
        <ele>546</ele>
        <time>2016-11-14T15:23:26Z</time>
      </trkpt>
      <trkpt lat="45.46067" lon="4.37606">
        <ele>545</ele>
        <time>2016-11-14T15:25:26Z</time>
      </trkpt>
      <trkpt lat="45.46084" lon="4.37642">
        <ele>539</ele>
        <time>2016-11-14T15:27:26Z</time>
      </trkpt>
      <trkpt lat="45.4612" lon="4.37642">
        <ele>536</ele>
        <time>2016-11-14T15:29:26Z</time>
      </trkpt>
      <trkpt lat="45.46127" lon="4.37651">
        <ele>534</ele>
        <time>2016-11-14T15:31:26Z</time>
      </trkpt>
      <trkpt lat="45.46085" lon="4.37747">
        <ele>522</ele>
        <time>2016-11-14T15:33:26Z</time>
      </trkpt>
      <trkpt lat="45.46098" lon="4.37761">
        <ele>518</ele>
        <time>2016-11-14T15:35:26Z</time>
      </trkpt>
      <trkpt lat="45.46108" lon="4.37764">
        <ele>516</ele>
        <time>2016-11-14T15:37:26Z</time>
      </trkpt>
      <trkpt lat="45.46112" lon="4.3778">
        <ele>514</ele>
        <time>2016-11-14T15:39:26Z</time>
      </trkpt>
      <trkpt lat="45.46159" lon="4.38074">
        <ele>490</ele>
        <time>2016-11-14T15:41:26Z</time>
      </trkpt>
      <trkpt lat="45.46162" lon="4.38102">
        <ele>489</ele>
        <time>2016-11-14T15:43:26Z</time>
      </trkpt>
      <trkpt lat="45.45962" lon="4.38168">
        <ele>496</ele>
        <time>2016-11-14T15:45:26Z</time>
      </trkpt>
      <trkpt lat="45.45933" lon="4.38189">
        <ele>497</ele>
        <time>2016-11-14T15:47:26Z</time>
      </trkpt>
      <trkpt lat="45.45922" lon="4.3825">
        <ele>496</ele>
        <time>2016-11-14T15:49:26Z</time>
      </trkpt>
      <trkpt lat="45.45957" lon="4.38545">
        <ele>490</ele>
        <time>2016-11-14T15:51:26Z</time>
      </trkpt>
      <trkpt lat="45.46002" lon="4.3858">
        <ele>488</ele>
        <time>2016-11-14T15:53:26Z</time>
      </trkpt>
      <trkpt lat="45.46137" lon="4.38778">
        <ele>487</ele>
        <time>2016-11-14T15:55:26Z</time>
      </trkpt>
      <trkpt lat="45.46162" lon="4.38861">
        <ele>488</ele>
        <time>2016-11-14T15:57:26Z</time>
      </trkpt>
      <trkpt lat="45.46177" lon="4.3901">
        <ele>488</ele>
        <time>2016-11-14T15:59:26Z</time>
      </trkpt>
      <trkpt lat="45.46132" lon="4.39004">
        <ele>491</ele>
        <time>2016-11-14T16:01:26Z</time>
      </trkpt>
      <trkpt lat="45.46136" lon="4.38976">
        <ele>491</ele>
        <time>2016-11-14T16:03:26Z</time>
      </trkpt>
      <trkpt lat="45.46036" lon="4.38948">
        <ele>492</ele>
        <time>2016-11-14T16:05:26Z</time>
      </trkpt>
      <trkpt lat="45.45995" lon="4.38965">
        <ele>492</ele>
        <time>2016-11-14T16:07:26Z</time>
      </trkpt>
      <trkpt lat="45.45857" lon="4.3903">
        <ele>493</ele>
        <time>2016-11-14T16:09:26Z</time>
      </trkpt>
      <trkpt lat="45.45823" lon="4.39043">
        <ele>494</ele>
        <time>2016-11-14T16:11:26Z</time>
      </trkpt>
      <trkpt lat="45.45792" lon="4.39036">
        <ele>494</ele>
        <time>2016-11-14T16:13:26Z</time>
      </trkpt>
      <trkpt lat="45.45768" lon="4.39031">
        <ele>494</ele>
        <time>2016-11-14T16:15:26Z</time>
      </trkpt>
      <trkpt lat="45.45708" lon="4.39043">
        <ele>494</ele>
        <time>2016-11-14T16:17:26Z</time>
      </trkpt>
      <trkpt lat="45.4566" lon="4.3913">
        <ele>494</ele>
        <time>2016-11-14T16:19:26Z</time>
      </trkpt>
      <trkpt lat="45.45607" lon="4.39174">
        <ele>496</ele>
        <time>2016-11-14T16:21:26Z</time>
      </trkpt>
      <trkpt lat="45.45226" lon="4.39289">
        <ele>494</ele>
        <time>2016-11-14T16:23:26Z</time>
      </trkpt>
      <trkpt lat="45.4521" lon="4.39308">
        <ele>494</ele>
        <time>2016-11-14T16:25:26Z</time>
      </trkpt>
      <trkpt lat="45.45213" lon="4.39353">
        <ele>494</ele>
        <time>2016-11-14T16:27:26Z</time>
      </trkpt>
      <trkpt lat="45.44956" lon="4.39428">
        <ele>493</ele>
        <time>2016-11-14T16:29:26Z</time>
      </trkpt>
    </trkseg>
  </trk>
</gpx>